createdAt,value
2023-01-08T00:02:28.117Z,20.60
2023-01-08T00:04:56.229Z,19.80
2023-01-08T00:07:24.369Z,18.70
2023-01-08T00:09:55.027Z,19.70
2023-01-08T00:12:23.113Z,17.40
2023-01-08T00:14:51.323Z,19.10
2023-01-08T00:17:19.417Z,20.80
2023-01-08T00:19:47.543Z,21.30
2023-01-08T00:22:15.662Z,23.60
2023-01-08T00:24:43.888Z,22.50
2023-01-08T00:27:12.036Z,19.80
2023-01-08T00:29:40.318Z,22.10
2023-01-08T00:32:08.454Z,19.30
2023-01-08T00:34:36.568Z,18.40
2023-01-08T00:37:04.875Z,17.90
2023-01-08T00:39:33.053Z,17.30
2023-01-08T00:42:01.179Z,17.20
2023-01-08T00:44:29.451Z,19.30
2023-01-08T00:46:57.594Z,17.80
2023-01-08T00:49:25.714Z,19.40
2023-01-08T00:51:53.923Z,18.00
2023-01-08T00:54:22.191Z,19.40
2023-01-08T00:56:50.345Z,18.00
2023-01-08T00:59:18.611Z,17.70
2023-01-08T01:01:47.041Z,17.60
2023-01-08T01:04:15.442Z,17.10
2023-01-08T01:06:43.638Z,18.30
2023-01-08T01:09:11.770Z,18.00
2023-01-08T01:11:39.904Z,18.40
2023-01-08T01:14:09.603Z,18.20
2023-01-08T01:16:37.764Z,17.70
2023-01-08T01:19:05.905Z,17.80
2023-01-08T01:21:34.674Z,18.90
2023-01-08T01:24:06.237Z,18.60
2023-01-08T01:26:34.903Z,20.00
2023-01-08T01:29:03.496Z,20.00
2023-01-08T01:31:34.417Z,18.30
2023-01-08T01:34:02.705Z,19.50
2023-01-08T01:36:30.914Z,20.20
2023-01-08T01:38:59.066Z,18.00
2023-01-08T01:41:33.353Z,17.60
2023-01-08T01:44:40.540Z,17.60
2023-01-08T01:47:34.739Z,17.70
2023-01-08T01:50:13.017Z,15.30
2023-01-08T01:52:49.160Z,16.30
2023-01-08T01:55:18.194Z,17.50
2023-01-08T01:58:00.196Z,16.60
2023-01-08T02:00:29.460Z,16.70
2023-01-08T02:02:57.785Z,15.00
2023-01-08T02:05:38.129Z,14.40
2023-01-08T02:08:12.576Z,17.70
2023-01-08T02:10:54.248Z,17.70
2023-01-08T02:13:34.919Z,18.70
2023-01-08T02:16:23.831Z,20.20
2023-01-08T02:19:14.060Z,16.80
2023-01-08T02:22:15.279Z,16.30
2023-01-08T02:25:22.326Z,15.70
2023-01-08T02:27:53.976Z,15.50
2023-01-08T02:30:22.134Z,15.80
2023-01-08T02:32:50.266Z,14.70
2023-01-08T02:35:18.467Z,14.20
2023-01-08T02:37:46.649Z,13.70
2023-01-08T02:40:58.838Z,13.20
2023-01-08T02:43:41.277Z,13.10
2023-01-08T02:46:14.834Z,13.00
2023-01-08T02:48:47.524Z,13.60
2023-01-08T02:51:30.895Z,13.20
2023-01-08T02:54:07.642Z,13.10
2023-01-08T02:56:45.915Z,14.10
2023-01-08T02:59:15.899Z,12.00
2023-01-08T03:01:45.799Z,11.80
2023-01-08T03:04:24.334Z,13.20
2023-01-08T03:06:52.707Z,13.20
2023-01-08T03:09:20.983Z,13.60
2023-01-08T03:12:24.015Z,15.20
2023-01-08T03:15:04.367Z,15.20
2023-01-08T03:17:38.243Z,15.00
2023-01-08T03:20:19.143Z,16.60
2023-01-08T03:22:52.928Z,17.60
2023-01-08T03:25:25.019Z,15.70
2023-01-08T03:28:00.515Z,17.80
2023-01-08T03:30:30.933Z,13.40
2023-01-08T03:33:01.699Z,15.40
2023-01-08T03:35:31.863Z,16.40
2023-01-08T03:38:19.249Z,15.60
2023-01-08T03:40:53.392Z,16.50
2023-01-08T03:43:21.586Z,16.30
2023-01-08T03:45:56.413Z,17.40
2023-01-08T03:48:27.614Z,20.30
2023-01-08T03:50:56.377Z,18.60
2023-01-08T03:53:24.552Z,19.50
2023-01-08T03:55:52.693Z,17.80
2023-01-08T03:58:20.904Z,16.10
2023-01-08T04:00:49.000Z,14.10
2023-01-08T04:03:17.322Z,14.50
2023-01-08T04:05:45.518Z,13.80
2023-01-08T04:08:13.625Z,14.10
2023-01-08T04:10:41.772Z,13.50
2023-01-08T04:13:10.003Z,14.30
2023-01-08T04:15:38.318Z,14.10
2023-01-08T04:18:06.607Z,16.50
2023-01-08T04:20:34.715Z,13.70
2023-01-08T04:23:02.885Z,14.70
2023-01-08T04:25:31.068Z,14.80
2023-01-08T04:27:59.389Z,14.20
2023-01-08T04:30:27.506Z,15.60
2023-01-08T04:32:55.632Z,15.00
2023-01-08T04:35:23.826Z,15.30
2023-01-08T04:37:51.973Z,15.60
2023-01-08T04:40:20.127Z,16.10
2023-01-08T04:42:48.279Z,16.90
2023-01-08T04:45:16.868Z,15.50
2023-01-08T04:47:45.055Z,14.20
2023-01-08T04:50:13.145Z,14.50
2023-01-08T04:52:41.311Z,14.60
2023-01-08T04:55:09.617Z,13.50
2023-01-08T04:57:37.737Z,13.40
2023-01-08T05:00:06.971Z,13.90
2023-01-08T05:02:35.742Z,15.20
2023-01-08T05:05:04.724Z,13.70
2023-01-08T05:07:33.111Z,15.20
2023-01-08T05:10:01.237Z,14.30
2023-01-08T05:12:29.387Z,12.70
2023-01-08T05:14:57.581Z,13.40
2023-01-08T05:17:25.790Z,13.40
2023-01-08T05:19:53.888Z,15.10
2023-01-08T05:22:22.180Z,14.40
2023-01-08T05:24:50.269Z,16.10
2023-01-08T05:27:18.608Z,16.50
2023-01-08T05:29:46.753Z,14.70
2023-01-08T05:32:17.409Z,16.40
2023-01-08T05:34:45.666Z,15.00
2023-01-08T05:37:13.847Z,15.30
2023-01-08T05:39:42.032Z,13.80
2023-01-08T05:42:10.122Z,14.10
2023-01-08T05:44:38.413Z,15.80
2023-01-08T05:47:06.600Z,15.20
2023-01-08T05:49:34.793Z,14.00
2023-01-08T05:52:02.963Z,13.30
2023-01-08T05:54:31.122Z,14.00
2023-01-08T05:56:59.261Z,15.00
2023-01-08T05:59:27.436Z,14.50
2023-01-08T06:01:55.683Z,13.80
2023-01-08T06:04:23.929Z,14.90
2023-01-08T06:06:52.089Z,15.00
2023-01-08T06:09:20.317Z,14.50
2023-01-08T06:11:48.488Z,13.70
2023-01-08T06:14:17.254Z,14.50
2023-01-08T06:16:46.104Z,14.90
2023-01-08T06:19:14.342Z,13.20
2023-01-08T06:21:42.510Z,13.60
2023-01-08T06:24:10.607Z,14.50
2023-01-08T06:26:39.008Z,14.80
2023-01-08T06:29:07.208Z,14.50
2023-01-08T06:31:36.095Z,13.70
2023-01-08T06:34:04.303Z,15.10
2023-01-08T06:36:32.505Z,13.70
2023-01-08T06:39:00.667Z,13.80
2023-01-08T06:41:28.836Z,15.60
2023-01-08T06:43:57.764Z,14.50
2023-01-08T06:46:26.017Z,16.60
2023-01-08T06:48:54.206Z,15.90
2023-01-08T06:51:22.385Z,20.50
2023-01-08T06:53:51.581Z,14.00
2023-01-08T06:56:19.764Z,12.80
2023-01-08T06:58:48.456Z,13.80
2023-01-08T07:01:17.694Z,14.20
2023-01-08T07:03:46.263Z,13.50
2023-01-08T07:06:20.655Z,13.10
2023-01-08T07:08:49.581Z,11.70
2023-01-08T07:11:17.729Z,11.50
2023-01-08T07:13:45.905Z,11.90
2023-01-08T07:16:15.591Z,12.50
2023-01-08T07:18:44.154Z,11.40
2023-01-08T07:21:15.193Z,12.30
2023-01-08T07:23:43.511Z,11.70
2023-01-08T07:26:11.732Z,12.00
2023-01-08T07:28:40.029Z,12.40
2023-01-08T07:31:08.328Z,12.80
2023-01-08T07:33:36.871Z,11.80
2023-01-08T07:36:06.029Z,12.80
2023-01-08T07:38:34.284Z,11.00
2023-01-08T07:41:02.694Z,11.80
2023-01-08T07:43:30.963Z,13.40
2023-01-08T07:46:02.506Z,12.10
2023-01-08T07:48:30.863Z,10.40
2023-01-08T07:51:04.981Z,11.60
2023-01-08T07:53:34.388Z,11.40
2023-01-08T07:56:05.851Z,12.40
2023-01-08T07:58:34.844Z,12.20
2023-01-08T08:01:04.604Z,15.80
2023-01-08T08:03:33.372Z,13.30
2023-01-08T08:06:01.728Z,13.20
2023-01-08T08:08:30.026Z,24.60
2023-01-08T08:10:58.357Z,19.70
2023-01-08T08:13:26.856Z,14.40
2023-01-08T08:15:55.109Z,14.00
2023-01-08T08:18:23.447Z,13.30
2023-01-08T08:20:52.232Z,13.00
2023-01-08T08:23:20.486Z,11.90
2023-01-08T08:25:48.816Z,14.40
2023-01-08T08:28:17.075Z,13.70
2023-01-08T08:30:45.678Z,14.80
2023-01-08T08:33:13.980Z,13.90
2023-01-08T08:35:50.703Z,13.00
2023-01-08T08:38:19.076Z,12.50
2023-01-08T08:40:47.451Z,12.30
2023-01-08T08:43:15.756Z,12.80
2023-01-08T08:45:44.141Z,11.80
2023-01-08T08:48:12.593Z,14.60
2023-01-08T08:50:40.862Z,12.80
2023-01-08T08:53:10.168Z,13.50
2023-01-08T08:55:38.561Z,13.00
2023-01-08T08:58:11.237Z,12.70
2023-01-08T09:00:41.882Z,12.20
2023-01-08T09:03:15.012Z,13.20
2023-01-08T09:08:13.757Z,12.70
2023-01-08T09:10:44.920Z,12.20
2023-01-08T09:13:13.351Z,12.10
2023-01-08T09:15:41.724Z,11.60
2023-01-08T09:18:13.101Z,14.50
2023-01-08T09:20:42.101Z,14.80
2023-01-08T09:23:12.764Z,12.10
2023-01-08T09:25:41.031Z,15.40
2023-01-08T09:28:12.884Z,15.40
2023-01-08T09:30:41.231Z,18.70
2023-01-08T09:33:10.507Z,13.30
2023-01-08T09:35:38.755Z,13.00
2023-01-08T09:38:10.495Z,13.00
2023-01-08T09:40:40.452Z,17.60
2023-01-08T09:43:20.067Z,12.60
2023-01-08T09:45:57.978Z,17.00
2023-01-08T09:48:35.292Z,13.00
2023-01-08T09:51:05.419Z,13.60
2023-01-08T09:53:33.813Z,16.60
2023-01-08T09:56:11.139Z,12.70
2023-01-08T09:58:50.602Z,13.40
2023-01-08T10:01:30.675Z,23.50
2023-01-08T10:04:16.659Z,23.90
2023-01-08T10:06:56.593Z,16.90
2023-01-08T10:09:29.885Z,15.80
2023-01-08T10:12:04.837Z,13.60
2023-01-08T10:14:39.918Z,14.10
2023-01-08T10:17:23.899Z,13.00
2023-01-08T10:19:52.141Z,12.20
2023-01-08T10:22:24.934Z,14.50
2023-01-08T10:24:53.150Z,13.40
2023-01-08T10:27:23.920Z,14.50
2023-01-08T10:29:52.716Z,15.80
2023-01-08T10:32:34.755Z,14.20
2023-01-08T10:35:07.866Z,14.50
2023-01-08T10:37:42.838Z,12.70
2023-01-08T10:40:48.470Z,15.70
2023-01-08T10:43:29.380Z,12.80
2023-01-08T10:46:14.378Z,11.90
2023-01-08T10:48:51.525Z,14.40
2023-01-08T10:51:26.100Z,14.70
2023-01-08T10:53:58.926Z,16.80
2023-01-08T10:56:30.042Z,12.30
2023-01-08T10:58:58.411Z,15.70
2023-01-08T11:01:29.975Z,14.90
2023-01-08T11:04:07.183Z,13.70
2023-01-08T11:06:45.443Z,13.20
2023-01-08T11:09:23.991Z,13.80
2023-01-08T11:11:52.408Z,13.40
2023-01-08T11:14:38.300Z,13.50
2023-01-08T11:17:12.749Z,13.90
2023-01-08T11:19:40.921Z,13.20
2023-01-08T11:22:22.297Z,14.00
2023-01-08T11:24:52.405Z,14.90
2023-01-08T11:27:39.764Z,16.20
2023-01-08T11:30:20.347Z,18.30
2023-01-08T11:33:08.542Z,17.00
2023-01-08T11:35:44.566Z,17.20
2023-01-08T11:38:13.912Z,16.50
2023-01-08T11:41:09.411Z,15.90
2023-01-08T11:44:16.346Z,14.90
2023-01-08T11:46:51.344Z,16.00
2023-01-08T11:49:37.038Z,14.70
2023-01-08T11:52:24.294Z,15.30
2023-01-08T11:55:07.724Z,16.20
2023-01-08T12:00:45.683Z,13.90
2023-01-08T12:03:31.383Z,11.50
2023-01-08T12:06:28.693Z,16.20
2023-01-08T12:09:24.369Z,16.10
2023-01-08T12:12:43.076Z,17.10
2023-01-08T12:15:38.267Z,22.30
2023-01-08T12:18:48.252Z,19.30
2023-01-08T12:21:33.780Z,18.10
2023-01-08T12:24:45.124Z,18.60
2023-01-08T12:27:29.772Z,18.20
2023-01-08T12:30:38.659Z,19.80
2023-01-08T12:33:34.255Z,19.30
2023-01-08T12:36:10.321Z,18.10
2023-01-08T12:38:44.829Z,17.40
2023-01-08T12:41:18.737Z,17.90
2023-01-08T12:44:02.163Z,18.00
2023-01-08T12:49:11.126Z,14.60
2023-01-08T12:52:03.089Z,16.60
2023-01-08T12:55:10.073Z,16.10
2023-01-08T12:57:44.222Z,16.10
2023-01-08T13:00:52.612Z,16.70
2023-01-08T13:03:27.443Z,16.70
2023-01-08T13:06:09.719Z,16.00
2023-01-08T13:08:40.386Z,16.00
2023-01-08T13:11:09.066Z,16.20
2023-01-08T13:13:45.357Z,18.50
2023-01-08T13:16:19.853Z,16.30
2023-01-08T13:19:04.635Z,18.10
2023-01-08T13:21:43.605Z,21.10
2023-01-08T13:24:36.995Z,19.50
2023-01-08T13:27:32.745Z,19.70
2023-01-08T13:30:02.147Z,18.90
2023-01-08T13:32:45.661Z,17.70
2023-01-08T13:37:52.005Z,15.80
2023-01-08T13:40:46.413Z,17.60
2023-01-08T13:43:20.676Z,17.50
2023-01-08T13:46:09.307Z,21.20
2023-01-08T13:48:47.968Z,17.70
2023-01-08T13:51:38.171Z,18.30
2023-01-08T13:54:39.061Z,21.10
2023-01-08T13:57:15.356Z,18.00
2023-01-08T13:59:49.294Z,17.60
2023-01-08T14:02:32.123Z,19.10
2023-01-08T14:05:10.924Z,19.50
2023-01-08T14:07:39.399Z,19.30
2023-01-08T14:10:13.795Z,19.30
2023-01-08T14:12:42.818Z,20.60
2023-01-08T14:15:21.902Z,19.60
2023-01-08T14:17:51.364Z,21.10
2023-01-08T14:20:38.926Z,20.70
2023-01-08T14:23:40.891Z,20.80
2023-01-08T14:26:27.372Z,18.80
2023-01-08T14:28:56.391Z,19.20
2023-01-08T14:31:30.223Z,17.90
2023-01-08T14:34:00.716Z,17.60
2023-01-08T14:36:29.439Z,17.30
2023-01-08T14:38:57.669Z,18.60
2023-01-08T14:41:58.625Z,19.30
2023-01-08T14:44:36.732Z,17.20
2023-01-08T14:47:18.410Z,16.30
2023-01-08T14:49:53.327Z,14.00
2023-01-08T14:52:22.001Z,14.60
2023-01-08T14:54:56.422Z,15.80
2023-01-08T14:57:27.096Z,15.30
2023-01-08T15:00:01.200Z,16.80
2023-01-08T15:02:33.833Z,17.00
2023-01-08T15:16:59.454Z,16.10
2023-01-08T15:19:31.518Z,14.40
2023-01-08T15:22:01.886Z,14.20
2023-01-08T15:24:41.473Z,17.20
2023-01-08T15:27:19.915Z,14.40
2023-01-08T15:29:51.868Z,15.50
2023-01-08T15:32:23.841Z,15.60
2023-01-08T15:34:52.092Z,14.00
2023-01-08T15:37:20.292Z,15.50
2023-01-08T15:39:48.566Z,13.80
2023-01-08T15:42:40.402Z,14.40
2023-01-08T15:45:21.790Z,12.70
2023-01-08T15:47:50.004Z,13.60
2023-01-08T15:50:20.410Z,13.60
2023-01-08T15:52:48.697Z,14.00
2023-01-08T15:55:20.302Z,14.50
2023-01-08T15:57:48.780Z,15.30
2023-01-08T16:00:20.254Z,15.60
2023-01-08T16:02:51.567Z,16.10
2023-01-08T16:05:23.929Z,14.50
2023-01-08T16:07:52.505Z,14.50
2023-01-08T16:10:21.084Z,14.40
2023-01-08T16:12:49.386Z,14.70
2023-01-08T16:15:18.399Z,15.30
2023-01-08T16:17:46.810Z,13.30
2023-01-08T16:20:15.630Z,14.30
2023-01-08T16:22:45.002Z,14.80
2023-01-08T16:25:13.507Z,14.70
2023-01-08T16:27:43.122Z,14.90
2023-01-08T16:30:17.127Z,15.30
2023-01-08T16:32:46.733Z,16.00
2023-01-08T16:35:15.242Z,16.30
2023-01-08T16:37:43.403Z,16.00
2023-01-08T16:40:12.642Z,15.70
2023-01-08T16:42:41.103Z,17.10
2023-01-08T16:45:09.854Z,17.00
2023-01-08T16:47:39.432Z,18.40
2023-01-08T16:50:09.576Z,18.30
2023-01-08T16:52:39.048Z,16.60
2023-01-08T16:55:08.034Z,16.00
2023-01-08T16:57:36.720Z,16.70
2023-01-08T17:00:05.910Z,18.40
2023-01-08T17:02:34.306Z,18.30
2023-01-08T17:05:02.582Z,16.50
2023-01-08T17:07:30.788Z,17.60
2023-01-08T17:09:58.999Z,17.20
2023-01-08T17:12:27.282Z,17.30
2023-01-08T17:14:55.540Z,16.60
2023-01-08T17:17:23.733Z,17.80
2023-01-08T17:19:52.023Z,21.50
2023-01-08T17:22:20.262Z,20.10
2023-01-08T17:24:48.919Z,19.60
2023-01-08T17:27:17.187Z,19.30
2023-01-08T17:29:45.480Z,20.00
2023-01-08T17:32:14.365Z,22.80
2023-01-08T17:34:42.638Z,23.10
2023-01-08T17:37:11.000Z,22.00
2023-01-08T17:39:39.272Z,20.20
2023-01-08T17:42:25.661Z,21.60
2023-01-08T17:44:57.083Z,20.20
2023-01-08T17:47:25.990Z,20.20
2023-01-08T17:49:56.535Z,17.90
2023-01-08T17:52:25.968Z,19.20
2023-01-08T17:54:54.226Z,18.80
2023-01-08T17:57:23.637Z,17.50
2023-01-08T17:59:51.818Z,17.50
2023-01-08T18:02:20.214Z,14.60
2023-01-08T18:04:48.995Z,17.00
2023-01-08T18:07:17.324Z,15.80
2023-01-08T18:09:45.509Z,15.70
2023-01-08T18:12:13.729Z,17.90
2023-01-08T18:14:42.045Z,16.00
2023-01-08T18:17:10.603Z,17.10
2023-01-08T18:19:39.008Z,18.20
2023-01-08T18:22:07.199Z,19.30
2023-01-08T18:24:35.628Z,21.00
2023-01-08T18:27:03.940Z,39.80
2023-01-08T18:29:32.096Z,27.70
2023-01-08T18:32:00.496Z,36.00
2023-01-08T18:37:23.344Z,30.50
2023-01-08T18:39:51.507Z,24.60
2023-01-08T18:42:28.525Z,20.60
2023-01-08T18:44:57.733Z,25.90
2023-01-08T18:47:28.782Z,25.20
2023-01-08T18:49:59.858Z,25.10
2023-01-08T18:52:29.115Z,27.80
2023-01-08T18:54:57.822Z,22.30
2023-01-08T18:57:26.462Z,20.60
2023-01-08T18:59:54.664Z,20.20
2023-01-08T19:02:27.760Z,21.70
2023-01-08T19:07:23.929Z,32.20
2023-01-08T19:09:52.130Z,21.50
2023-01-08T19:12:20.300Z,24.80
2023-01-08T19:14:48.478Z,27.40
2023-01-08T19:17:16.727Z,24.10
2023-01-08T19:19:44.827Z,26.70
2023-01-08T19:22:12.977Z,32.00
2023-01-08T19:24:41.281Z,26.00
2023-01-08T19:27:09.485Z,27.00
2023-01-08T19:29:37.776Z,28.50
2023-01-08T19:32:07.591Z,29.10
2023-01-08T19:34:35.740Z,27.20
2023-01-08T19:37:04.015Z,28.30
2023-01-08T19:39:32.134Z,25.20
2023-01-08T19:42:19.291Z,26.80
2023-01-08T19:44:47.491Z,23.60
2023-01-08T19:47:15.619Z,21.40
2023-01-08T19:49:47.714Z,19.80
2023-01-08T19:52:17.245Z,20.10
2023-01-08T19:54:45.999Z,17.40
2023-01-08T19:57:14.261Z,20.20
2023-01-08T19:59:42.537Z,21.00
2023-01-08T20:02:11.273Z,21.10
2023-01-08T20:04:43.643Z,20.40
2023-01-08T20:07:13.217Z,22.50
2023-01-08T20:09:42.639Z,20.00
2023-01-08T20:12:11.584Z,21.50
2023-01-08T20:14:39.747Z,20.70
2023-01-08T20:17:07.916Z,21.20
2023-01-08T20:19:36.942Z,22.20
2023-01-08T20:22:05.190Z,22.10
2023-01-08T20:24:33.322Z,22.10
2023-01-08T20:27:01.435Z,23.00
2023-01-08T20:29:29.645Z,24.40
2023-01-08T20:31:59.484Z,26.50
2023-01-08T20:34:28.044Z,26.10
2023-01-08T20:36:56.458Z,22.80
2023-01-08T20:39:24.974Z,23.40
2023-01-08T20:42:03.374Z,25.40
2023-01-08T20:44:33.526Z,24.90
2023-01-08T20:47:02.386Z,23.70
2023-01-08T20:49:30.785Z,21.90
2023-01-08T20:52:00.406Z,22.50
2023-01-08T20:54:30.251Z,20.20
2023-01-08T20:57:00.447Z,19.70
2023-01-08T20:59:29.207Z,18.00
2023-01-08T21:01:57.551Z,16.90
2023-01-08T21:04:25.989Z,18.50
2023-01-08T21:06:54.239Z,16.40
2023-01-08T21:09:22.595Z,15.80
2023-01-08T21:11:50.901Z,15.10
2023-01-08T21:14:19.402Z,15.20
2023-01-08T21:16:47.629Z,15.50
2023-01-08T21:19:16.080Z,15.90
2023-01-08T21:21:45.727Z,14.80
2023-01-08T21:24:14.921Z,14.40
2023-01-08T21:26:44.993Z,14.50
2023-01-08T21:29:14.676Z,14.10
2023-01-08T21:31:43.276Z,12.90
2023-01-08T21:34:11.826Z,14.10
2023-01-08T21:36:40.098Z,13.40
2023-01-08T21:39:10.607Z,12.20
2023-01-08T21:41:57.140Z,12.90
2023-01-08T21:44:44.446Z,12.90
2023-01-08T21:47:17.110Z,14.50
2023-01-08T21:49:46.143Z,12.00
2023-01-08T21:52:32.687Z,12.90
2023-01-08T21:55:02.270Z,12.90
2023-01-08T21:57:30.425Z,12.60
2023-01-08T21:59:58.575Z,11.80
2023-01-08T22:02:26.745Z,11.50
2023-01-08T22:04:56.245Z,11.70
2023-01-08T22:07:26.002Z,13.60
2023-01-08T22:09:54.906Z,11.50
2023-01-08T22:12:24.223Z,13.30
2023-01-08T22:14:56.619Z,12.40
2023-01-08T22:17:26.738Z,11.80
2023-01-08T22:19:54.910Z,13.30
2023-01-08T22:22:23.061Z,12.80
2023-01-08T22:24:52.391Z,13.40
2023-01-08T22:27:21.499Z,17.90
2023-01-08T22:29:49.868Z,15.50
2023-01-08T22:32:18.309Z,14.60
2023-01-08T22:34:46.828Z,13.90
2023-01-08T22:37:16.867Z,11.70
2023-01-08T22:39:46.179Z,13.10
2023-01-08T22:42:15.741Z,13.60
2023-01-08T22:44:43.879Z,13.70
2023-01-08T22:47:12.012Z,12.20
2023-01-08T22:49:40.117Z,12.00
2023-01-08T22:52:09.483Z,12.00
2023-01-08T22:54:38.780Z,12.50
2023-01-08T22:57:08.063Z,13.70
2023-01-08T22:59:36.402Z,13.70
2023-01-08T23:02:04.510Z,13.00
2023-01-08T23:04:32.760Z,13.50
2023-01-08T23:07:00.910Z,15.40
2023-01-08T23:09:29.265Z,18.50
2023-01-08T23:11:57.451Z,18.40
2023-01-08T23:14:25.599Z,19.30
2023-01-08T23:16:53.728Z,18.50
2023-01-08T23:19:21.820Z,19.70
2023-01-08T23:21:49.938Z,20.90
2023-01-08T23:24:18.091Z,20.10
2023-01-08T23:26:46.211Z,20.20
2023-01-08T23:29:14.411Z,16.60
2023-01-08T23:31:44.160Z,18.00
2023-01-08T23:34:12.540Z,19.40
2023-01-08T23:36:41.024Z,17.50
2023-01-08T23:39:10.468Z,17.60
2023-01-08T23:41:38.859Z,16.10
2023-01-08T23:44:12.470Z,17.00
2023-01-08T23:46:40.731Z,16.00
2023-01-08T23:49:10.140Z,14.80
2023-01-08T23:51:42.092Z,13.70
2023-01-08T23:54:11.405Z,13.30
2023-01-08T23:56:41.084Z,13.70
2023-01-08T23:59:09.871Z,15.80
